Time;durP1;ratioP1;P1;durP2;ratioP2;P2;SDS_P1;SDS_P2;PMS_P1;PMS_P2;Temp;Humidity;BMP_temperature;BMP_pressure;BME280_temperature;BME280_humidity;BME280_pressure;Samples;Min_cycle;Max_cycle;Signal;HPM_P1;HPM_P2
2024/01/11 00:00:29;;;;;;;39.55;20.55;;;;;;;;;;5067400;28;20052;-81
2024/01/11 00:03:14;;;;;;;39.17;19.20;;;;;;;;;;5062804;28;20036;-81
2024/01/11 00:06:00;;;;;;;38.05;19.55;;;;;;;;;;5057335;28;20044;-81
2024/01/11 00:08:45;;;;;;;35.50;19.73;;;;;;;;;;5058356;28;20075;-81
2024/01/11 00:11:31;;;;;;;37.17;18.83;;;;;;;;;;5063819;28;20021;-81
2024/01/11 00:14:16;;;;;;;35.08;19.35;;;;;;;;;;5060953;28;20393;-81
2024/01/11 00:17:02;;;;;;;37.78;18.55;;;;;;;;;;5059778;28;20099;-81
2024/01/11 00:19:48;;;;;;;39.05;20.00;;;;;;;;;;5058648;28;20058;-80
2024/01/11 00:22:33;;;;;;;43.15;22.60;;;;;;;;;;5064770;28;20390;-80
2024/01/11 00:25:19;;;;;;;42.20;20.42;;;;;;;;;;5063808;28;20478;-79
2024/01/11 00:28:04;;;;;;;37.65;19.02;;;;;;;;;;5051280;28;20029;-79
2024/01/11 00:30:49;;;;;;;42.08;18.50;;;;;;;;;;5061109;28;20416;-79
2024/01/11 00:33:34;;;;;;;41.92;20.75;;;;;;;;;;5065646;28;20024;-79
2024/01/11 00:36:20;;;;;;;37.75;17.92;;;;;;;;;;5054568;28;20068;-79
2024/01/11 00:39:05;;;;;;;48.83;20.70;;;;;;;;;;5056768;28;20526;-79
2024/01/11 00:41:51;;;;;;;35.15;18.00;;;;;;;;;;5046310;28;20116;-79
2024/01/11 00:44:36;;;;;;;40.47;19.10;;;;;;;;;;5048486;28;20126;-79
2024/01/11 00:47:21;;;;;;;37.78;19.70;;;;;;;;;;5056820;28;20047;-78
2024/01/11 00:50:07;;;;;;;39.55;19.55;;;;;;;;;;5052919;28;20025;-78
2024/01/11 00:52:52;;;;;;;38.13;20.00;;;;;;;;;;5047322;28;20021;-81
2024/01/11 00:55:37;;;;;;;34.85;17.95;;;;;;;;;;5047933;28;20032;-80
2024/01/11 00:58:22;;;;;;;41.20;20.63;;;;;;;;;;5065279;28;20129;-78
2024/01/11 01:01:11;;;;;;;37.00;19.05;;;;;;;;;;5088494;28;20058;-82
2024/01/11 01:03:56;;;;;;;38.10;19.70;;;;;;;;;;5070147;28;20035;-79
2024/01/11 01:06:42;;;;;;;33.78;19.13;;;;;;;;;;5087630;28;20028;-80
2024/01/11 01:09:27;;;;;;;34.92;19.48;;;;;;;;;;5080755;28;20036;-80
2024/01/11 01:12:12;;;;;;;39.40;18.60;;;;;;;;;;5089500;28;20066;-80
2024/01/11 01:14:58;;;;;;;38.83;18.52;;;;;;;;;;5093538;28;20069;-80
2024/01/11 01:17:43;;;;;;;36.45;18.73;;;;;;;;;;5090638;28;20024;-81
2024/01/11 01:20:28;;;;;;;36.85;18.40;;;;;;;;;;5092527;28;20046;-80
2024/01/11 01:23:13;;;;;;;41.00;18.98;;;;;;;;;;5087777;28;20035;-81
2024/01/11 01:25:58;;;;;;;36.40;20.13;;;;;;;;;;5087451;28;20566;-82
2024/01/11 01:28:44;;;;;;;39.97;17.83;;;;;;;;;;5093876;28;20020;-80
2024/01/11 01:31:29;;;;;;;41.75;19.55;;;;;;;;;;5085036;28;20080;-80
2024/01/11 01:34:14;;;;;;;42.00;20.10;;;;;;;;;;5086368;28;20833;-80
2024/01/11 01:36:59;;;;;;;33.78;18.10;;;;;;;;;;5089405;28;20109;-80
2024/01/11 01:39:45;;;;;;;36.05;18.90;;;;;;;;;;5087276;28;20333;-81
2024/01/11 01:42:30;;;;;;;36.47;18.30;;;;;;;;;;5090638;28;20031;-80
2024/01/11 01:45:16;;;;;;;40.40;19.42;;;;;;;;;;5092634;28;20073;-80
2024/01/11 01:48:02;;;;;;;38.10;19.05;;;;;;;;;;5088915;28;20023;-80
2024/01/11 01:50:50;;;;;;;32.33;17.38;;;;;;;;;;5085327;28;20697;-80
2024/01/11 01:53:36;;;;;;;34.13;19.02;;;;;;;;;;5090024;28;20023;-80
2024/01/11 01:56:21;;;;;;;39.75;19.23;;;;;;;;;;5090351;28;20512;-80
2024/01/11 01:59:06;;;;;;;38.08;19.20;;;;;;;;;;5077400;28;20403;-80
2024/01/11 02:01:52;;;;;;;37.88;18.98;;;;;;;;;;5082698;28;20055;-79
2024/01/11 02:04:37;;;;;;;39.28;19.98;;;;;;;;;;5090277;28;20038;-80
2024/01/11 02:07:23;;;;;;;36.13;19.27;;;;;;;;;;5091874;28;20028;-80
2024/01/11 02:10:09;;;;;;;38.67;18.60;;;;;;;;;;5087843;28;21016;-81
2024/01/11 02:12:54;;;;;;;33.65;16.27;;;;;;;;;;5074844;28;20024;-81
2024/01/11 02:15:39;;;;;;;39.45;19.08;;;;;;;;;;5086542;28;20024;-79
2024/01/11 02:18:24;;;;;;;34.05;17.20;;;;;;;;;;5072601;28;20039;-82
2024/01/11 02:21:12;;;;;;;39.03;19.92;;;;;;;;;;5083169;28;20039;-81
2024/01/11 02:24:04;;;;;;;36.88;18.85;;;;;;;;;;5077363;28;20421;-81
2024/01/11 02:27:02;;;;;;;40.08;19.80;;;;;;;;;;5076963;28;20115;-81
2024/01/11 02:29:48;;;;;;;36.37;17.63;;;;;;;;;;5079558;28;20031;-78
2024/01/11 02:32:33;;;;;;;35.00;19.20;;;;;;;;;;5089310;28;20262;-80
2024/01/11 02:35:21;;;;;;;30.55;16.10;;;;;;;;;;5092386;28;20545;-79
2024/01/11 02:38:07;;;;;;;42.10;18.67;;;;;;;;;;5093506;28;20097;-81
2024/01/11 02:40:52;;;;;;;38.35;19.00;;;;;;;;;;5084749;28;20058;-81
2024/01/11 02:43:39;;;;;;;32.20;17.25;;;;;;;;;;5092665;28;20030;-80
2024/01/11 02:46:24;;;;;;;37.60;18.13;;;;;;;;;;5092339;28;20031;-80
2024/01/11 02:49:09;;;;;;;38.83;19.50;;;;;;;;;;5085027;28;20073;-81
2024/01/11 02:51:54;;;;;;;40.97;19.25;;;;;;;;;;5103234;28;20324;-81
2024/01/11 02:54:40;;;;;;;38.08;20.23;;;;;;;;;;5092691;28;20038;-80
2024/01/11 02:57:25;;;;;;;33.42;17.27;;;;;;;;;;5086395;28;20028;-80
2024/01/11 03:00:10;;;;;;;36.90;17.88;;;;;;;;;;5102583;28;20050;-81
2024/01/11 03:02:55;;;;;;;35.55;18.58;;;;;;;;;;5103499;28;20020;-81
2024/01/11 03:05:41;;;;;;;34.30;18.02;;;;;;;;;;5100573;28;20028;-81
2024/01/11 03:08:26;;;;;;;37.85;18.33;;;;;;;;;;5118091;28;20016;-80
2024/01/11 03:11:11;;;;;;;33.25;18.33;;;;;;;;;;5121394;28;20031;-80
2024/01/11 03:13:56;;;;;;;38.72;17.92;;;;;;;;;;5105277;28;20030;-80
2024/01/11 03:16:42;;;;;;;37.65;19.60;;;;;;;;;;5096790;28;20034;-80
2024/01/11 03:19:27;;;;;;;35.67;18.38;;;;;;;;;;5096600;28;20040;-79
2024/01/11 03:22:13;;;;;;;41.95;18.95;;;;;;;;;;5092339;28;20093;-80
2024/01/11 03:24:58;;;;;;;34.03;18.20;;;;;;;;;;5091809;28;20057;-79
2024/01/11 03:27:44;;;;;;;36.42;18.08;;;;;;;;;;5095261;28;20023;-78
2024/01/11 03:30:29;;;;;;;29.98;18.10;;;;;;;;;;5095115;28;20020;-79
2024/01/11 03:33:14;;;;;;;36.72;18.88;;;;;;;;;;5089855;28;20024;-79
2024/01/11 03:36:05;;;;;;;38.50;19.73;;;;;;;;;;5107941;28;20059;-81
2024/01/11 03:38:51;;;;;;;35.15;17.55;;;;;;;;;;5109106;28;20038;-79
2024/01/11 03:41:36;;;;;;;39.72;19.60;;;;;;;;;;5088744;28;20060;-81
2024/01/11 03:44:22;;;;;;;39.33;18.15;;;;;;;;;;5095313;28;20028;-80
2024/01/11 03:47:07;;;;;;;36.15;16.67;;;;;;;;;;5107134;28;20031;-80
2024/01/11 03:49:52;;;;;;;38.22;18.52;;;;;;;;;;5085973;28;20024;-81
2024/01/11 03:52:39;;;;;;;38.38;19.40;;;;;;;;;;5081126;28;20059;-81
2024/01/11 03:55:24;;;;;;;37.88;19.33;;;;;;;;;;5081215;28;20036;-80
2024/01/11 03:58:09;;;;;;;40.50;19.05;;;;;;;;;;5095147;28;20477;-81
2024/01/11 04:00:54;;;;;;;39.00;18.70;;;;;;;;;;5093759;28;20118;-81
2024/01/11 04:03:41;;;;;;;37.67;19.95;;;;;;;;;;5090161;28;20043;-80
2024/01/11 04:06:26;;;;;;;36.42;19.52;;;;;;;;;;5091164;28;20027;-81
2024/01/11 04:09:12;;;;;;;39.67;19.15;;;;;;;;;;5091696;28;20619;-80
2024/01/11 04:11:57;;;;;;;39.08;19.52;;;;;;;;;;5081477;28;20042;-80
2024/01/11 04:14:42;;;;;;;37.38;18.90;;;;;;;;;;5081263;28;20028;-80
2024/01/11 04:17:27;;;;;;;37.97;19.75;;;;;;;;;;5086385;28;20028;-80
2024/01/11 04:20:13;;;;;;;34.75;17.88;;;;;;;;;;5077414;28;20049;-81
2024/01/11 04:22:58;;;;;;;40.63;21.10;;;;;;;;;;5075180;28;20548;-80
2024/01/11 04:25:43;;;;;;;35.58;17.88;;;;;;;;;;5094339;28;20024;-80
2024/01/11 04:28:28;;;;;;;44.13;20.25;;;;;;;;;;5091278;28;20390;-80
2024/01/11 04:31:14;;;;;;;35.72;19.75;;;;;;;;;;5075664;28;20110;-79
2024/01/11 04:33:59;;;;;;;34.85;18.00;;;;;;;;;;5119616;27;20051;-79
2024/01/11 04:36:44;;;;;;;36.08;18.25;;;;;;;;;;5084800;28;20058;-79
2024/01/11 04:39:30;;;;;;;37.58;19.73;;;;;;;;;;5077512;28;21049;-78
2024/01/11 04:42:16;;;;;;;41.83;19.63;;;;;;;;;;5088296;28;20504;-79
2024/01/11 04:45:01;;;;;;;36.83;19.00;;;;;;;;;;5087947;28;20076;-81
2024/01/11 04:47:46;;;;;;;40.65;19.88;;;;;;;;;;5075858;28;20035;-81
2024/01/11 04:50:32;;;;;;;39.55;19.08;;;;;;;;;;5091948;28;20115;-81
2024/01/11 04:53:17;;;;;;;37.05;19.45;;;;;;;;;;5102651;28;20032;-81
2024/01/11 04:56:02;;;;;;;45.53;20.52;;;;;;;;;;5103857;28;20390;-81
2024/01/11 04:58:48;;;;;;;40.92;18.38;;;;;;;;;;5094810;28;20040;-80
2024/01/11 05:01:36;;;;;;;40.08;18.90;;;;;;;;;;5077393;28;20550;-81
2024/01/11 05:04:21;;;;;;;35.95;18.35;;;;;;;;;;5106456;28;20035;-81
2024/01/11 05:07:06;;;;;;;35.38;18.27;;;;;;;;;;5087910;28;20022;-80
2024/01/11 05:09:55;;;;;;;34.50;19.27;;;;;;;;;;5075858;28;20035;-81
2024/01/11 05:12:40;;;;;;;38.20;18.77;;;;;;;;;;5092720;28;20027;-81
2024/01/11 05:15:25;;;;;;;46.72;22.88;;;;;;;;;;5084992;28;20068;-81
2024/01/11 05:18:13;;;;;;;37.17;19.25;;;;;;;;;;5073578;28;20024;-80
2024/01/11 05:20:59;;;;;;;37.90;19.27;;;;;;;;;;5078126;28;20023;-80
2024/01/11 05:23:44;;;;;;;35.60;17.73;;;;;;;;;;5094158;28;20057;-80
2024/01/11 05:26:29;;;;;;;41.97;19.92;;;;;;;;;;5092388;28;20031;-80
2024/01/11 05:29:14;;;;;;;40.75;18.98;;;;;;;;;;5103123;27;20038;-80
2024/01/11 05:32:00;;;;;;;37.92;18.20;;;;;;;;;;5118229;27;20111;-80
2024/01/11 05:34:45;;;;;;;37.47;19.10;;;;;;;;;;5090288;28;20046;-79
2024/01/11 05:37:31;;;;;;;35.38;18.65;;;;;;;;;;5087422;28;20035;-80
2024/01/11 05:40:16;;;;;;;40.55;21.17;;;;;;;;;;5091497;28;20368;-80
2024/01/11 05:43:01;;;;;;;38.45;19.52;;;;;;;;;;5088613;28;20111;-80
2024/01/11 05:45:46;;;;;;;35.15;19.75;;;;;;;;;;5093666;28;20110;-80
2024/01/11 05:48:32;;;;;;;36.65;19.30;;;;;;;;;;5087686;28;20028;-80
2024/01/11 05:51:17;;;;;;;40.78;18.58;;;;;;;;;;5088874;28;20054;-80
2024/01/11 05:54:02;;;;;;;39.78;19.33;;;;;;;;;;5080282;28;20103;-82
2024/01/11 05:56:48;;;;;;;37.20;19.50;;;;;;;;;;5081222;28;20107;-81
2024/01/11 05:59:33;;;;;;;38.80;19.67;;;;;;;;;;5104239;28;20055;-82
2024/01/11 06:02:20;;;;;;;42.78;20.83;;;;;;;;;;5085644;28;20053;-82
2024/01/11 06:05:08;;;;;;;39.45;18.58;;;;;;;;;;5085593;28;20039;-80
2024/01/11 06:07:53;;;;;;;38.60;18.15;;;;;;;;;;5096438;28;20073;-82
2024/01/11 06:10:39;;;;;;;37.47;19.20;;;;;;;;;;5083335;28;20043;-82
2024/01/11 06:13:24;;;;;;;42.22;20.73;;;;;;;;;;5084455;28;20114;-82
2024/01/11 06:16:09;;;;;;;47.10;21.45;;;;;;;;;;5084428;28;20106;-83
2024/01/11 06:18:54;;;;;;;43.65;21.58;;;;;;;;;;5080359;28;20033;-83
2024/01/11 06:21:40;;;;;;;39.55;21.30;;;;;;;;;;5081340;28;20020;-83
2024/01/11 06:24:25;;;;;;;38.80;21.00;;;;;;;;;;5088077;28;20048;-85
2024/01/11 06:27:10;;;;;;;37.05;19.35;;;;;;;;;;5087373;28;20032;-80
2024/01/11 06:29:55;;;;;;;46.40;21.33;;;;;;;;;;5074812;28;20028;-80
2024/01/11 06:32:40;;;;;;;44.58;19.27;;;;;;;;;;5076846;28;20036;-79
2024/01/11 06:35:26;;;;;;;36.13;19.42;;;;;;;;;;5092064;28;20118;-80
2024/01/11 06:38:11;;;;;;;49.53;21.55;;;;;;;;;;5085905;28;20039;-81
2024/01/11 06:40:56;;;;;;;43.13;22.02;;;;;;;;;;5089332;28;20035;-79
2024/01/11 06:43:41;;;;;;;42.35;20.27;;;;;;;;;;5104900;28;20027;-80
2024/01/11 06:46:27;;;;;;;46.72;22.52;;;;;;;;;;5092366;28;20034;-80
2024/01/11 06:49:12;;;;;;;40.45;19.95;;;;;;;;;;5085642;28;20039;-81
2024/01/11 06:51:57;;;;;;;41.15;20.05;;;;;;;;;;5086594;28;20027;-80
2024/01/11 06:54:42;;;;;;;43.85;21.58;;;;;;;;;;5089218;28;20090;-81
2024/01/11 06:57:28;;;;;;;38.95;19.83;;;;;;;;;;5100537;28;20126;-80
2024/01/11 07:00:13;;;;;;;44.17;20.42;;;;;;;;;;5085866;28;20047;-81
2024/01/11 07:02:58;;;;;;;40.38;20.77;;;;;;;;;;5082014;28;20016;-80
2024/01/11 07:05:43;;;;;;;51.63;22.27;;;;;;;;;;5082005;28;20021;-81
2024/01/11 07:08:29;;;;;;;48.20;22.00;;;;;;;;;;5082591;28;20076;-80
2024/01/11 07:11:15;;;;;;;44.40;21.63;;;;;;;;;;5087372;28;20032;-81
2024/01/11 07:14:00;;;;;;;45.42;21.92;;;;;;;;;;5086637;28;20032;-81
2024/01/11 07:16:46;;;;;;;45.53;22.38;;;;;;;;;;5084799;28;20045;-81
2024/01/11 07:19:31;;;;;;;42.08;21.38;;;;;;;;;;5083817;28;20036;-82
2024/01/11 07:22:16;;;;;;;37.55;19.85;;;;;;;;;;5085599;28;20512;-81
2024/01/11 07:25:03;;;;;;;44.70;21.73;;;;;;;;;;5086360;28;20026;-83
2024/01/11 07:27:49;;;;;;;48.45;22.38;;;;;;;;;;5103306;28;20012;-80
2024/01/11 07:30:34;;;;;;;45.25;23.00;;;;;;;;;;5086170;28;20032;-82
2024/01/11 07:33:20;;;;;;;48.80;21.10;;;;;;;;;;5085896;28;20028;-81
2024/01/11 07:36:06;;;;;;;39.90;20.48;;;;;;;;;;5087685;28;20118;-82
2024/01/11 07:38:52;;;;;;;39.33;19.67;;;;;;;;;;5084439;28;20024;-81
2024/01/11 07:41:38;;;;;;;49.45;22.92;;;;;;;;;;5082351;28;20016;-80
2024/01/11 07:44:23;;;;;;;45.72;19.20;;;;;;;;;;5095459;28;20061;-79
2024/01/11 07:47:08;;;;;;;39.30;21.15;;;;;;;;;;5086062;28;20023;-81
2024/01/11 07:49:54;;;;;;;45.50;22.05;;;;;;;;;;5100246;28;20043;-79
2024/01/11 07:52:42;;;;;;;48.33;23.48;;;;;;;;;;5086132;28;20038;-81
2024/01/11 07:55:28;;;;;;;44.63;21.48;;;;;;;;;;5087606;28;20024;-79
2024/01/11 07:58:13;;;;;;;46.05;22.77;;;;;;;;;;5087689;28;20028;-80
2024/01/11 08:01:00;;;;;;;45.00;21.67;;;;;;;;;;5084807;28;20482;-82
2024/01/11 08:03:45;;;;;;;50.83;23.27;;;;;;;;;;5085305;28;21763;-83
2024/01/11 08:06:30;;;;;;;41.40;20.52;;;;;;;;;;5092065;28;20035;-82
2024/01/11 08:09:15;;;;;;;49.10;21.83;;;;;;;;;;5088359;28;20023;-82
2024/01/11 08:12:00;;;;;;;45.15;21.95;;;;;;;;;;5087378;28;20038;-80
2024/01/11 08:14:46;;;;;;;44.45;21.77;;;;;;;;;;5087176;28;20112;-80
2024/01/11 08:17:32;;;;;;;39.65;20.30;;;;;;;;;;5091850;27;20068;-81
2024/01/11 08:20:17;;;;;;;48.28;22.33;;;;;;;;;;5085921;28;20015;-81
2024/01/11 08:23:03;;;;;;;36.30;18.75;;;;;;;;;;5084886;28;20016;-82
2024/01/11 08:25:48;;;;;;;46.00;22.80;;;;;;;;;;5081206;28;20673;-84
2024/01/11 08:28:33;;;;;;;45.75;23.05;;;;;;;;;;5088451;28;20058;-82
2024/01/11 08:31:19;;;;;;;44.88;22.73;;;;;;;;;;5085577;28;20434;-83
2024/01/11 08:34:04;;;;;;;51.42;24.17;;;;;;;;;;5074503;28;20027;-81
2024/01/11 08:36:49;;;;;;;42.63;22.08;;;;;;;;;;5085938;28;20500;-83
2024/01/11 08:39:34;;;;;;;46.65;21.40;;;;;;;;;;5088184;28;20035;-81
2024/01/11 08:42:20;;;;;;;41.47;20.67;;;;;;;;;;5086992;28;20081;-83
2024/01/11 08:45:06;;;;;;;41.78;22.20;;;;;;;;;;5087650;28;20024;-83
2024/01/11 08:47:51;;;;;;;43.92;22.17;;;;;;;;;;5076701;28;20049;-81
2024/01/11 08:50:37;;;;;;;47.47;23.08;;;;;;;;;;5082782;28;20036;-82
2024/01/11 08:53:22;;;;;;;42.45;20.95;;;;;;;;;;5085857;28;20043;-82
2024/01/11 08:56:07;;;;;;;52.08;25.05;;;;;;;;;;5085514;28;20157;-79
2024/01/11 08:58:53;;;;;;;41.10;21.48;;;;;;;;;;5094094;28;20530;-79
2024/01/11 09:01:38;;;;;;;48.53;25.42;;;;;;;;;;5080157;28;20034;-80
2024/01/11 09:04:24;;;;;;;41.22;22.23;;;;;;;;;;5083097;28;20039;-81
2024/01/11 09:07:09;;;;;;;43.78;22.08;;;;;;;;;;5089691;28;20169;-82
2024/01/11 09:09:55;;;;;;;43.33;22.65;;;;;;;;;;5085588;28;20023;-81
2024/01/11 09:12:40;;;;;;;45.67;22.60;;;;;;;;;;5083933;28;20138;-83
2024/01/11 09:15:26;;;;;;;40.03;21.48;;;;;;;;;;5083276;28;20027;-81
2024/01/11 09:18:15;;;;;;;52.05;24.55;;;;;;;;;;5083036;28;20428;-82
2024/01/11 09:21:01;;;;;;;44.50;22.73;;;;;;;;;;5099177;28;20043;-83
2024/01/11 09:23:46;;;;;;;44.50;23.60;;;;;;;;;;5086519;28;20089;-81
2024/01/11 09:26:31;;;;;;;44.72;23.92;;;;;;;;;;5084023;28;20024;-81
2024/01/11 09:29:16;;;;;;;47.13;24.58;;;;;;;;;;5087983;28;20031;-81
2024/01/11 09:32:02;;;;;;;49.38;24.45;;;;;;;;;;5087647;28;20035;-82
2024/01/11 09:34:47;;;;;;;41.90;20.90;;;;;;;;;;5085680;28;20478;-81
2024/01/11 09:37:32;;;;;;;46.20;24.10;;;;;;;;;;5081198;28;20035;-85
2024/01/11 09:40:18;;;;;;;49.55;24.92;;;;;;;;;;5082492;28;20546;-82
2024/01/11 09:43:04;;;;;;;49.63;26.70;;;;;;;;;;5087567;28;20103;-79
2024/01/11 09:45:50;;;;;;;50.53;25.48;;;;;;;;;;5086553;28;20024;-81
2024/01/11 09:48:37;;;;;;;45.45;24.35;;;;;;;;;;5089367;28;20035;-82
2024/01/11 09:51:22;;;;;;;57.05;26.80;;;;;;;;;;5079378;28;20040;-81
2024/01/11 09:54:09;;;;;;;50.78;26.30;;;;;;;;;;5084183;28;20123;-82
2024/01/11 09:56:55;;;;;;;49.20;26.45;;;;;;;;;;5071285;28;20024;-81
2024/01/11 09:59:41;;;;;;;48.63;26.52;;;;;;;;;;5072923;28;20052;-81
2024/01/11 10:02:26;;;;;;;45.03;25.40;;;;;;;;;;5078512;28;20061;-82
2024/01/11 10:05:13;;;;;;;48.75;25.75;;;;;;;;;;5083778;28;20193;-82
2024/01/11 10:07:59;;;;;;;50.53;27.65;;;;;;;;;;5101471;28;20023;-82
2024/01/11 10:10:44;;;;;;;53.50;25.10;;;;;;;;;;5088916;28;20031;-81
2024/01/11 10:13:30;;;;;;;54.03;28.10;;;;;;;;;;5084542;28;20012;-81
2024/01/11 10:16:15;;;;;;;50.22;27.23;;;;;;;;;;5083621;28;20498;-81
2024/01/11 10:19:01;;;;;;;50.90;26.83;;;;;;;;;;5085087;28;20031;-81
2024/01/11 10:21:46;;;;;;;51.25;28.10;;;;;;;;;;5086146;28;20125;-81
2024/01/11 10:24:32;;;;;;;54.40;27.55;;;;;;;;;;5088489;28;20031;-81
2024/01/11 10:27:17;;;;;;;53.42;27.02;;;;;;;;;;5087194;28;20406;-80
2024/01/11 10:30:02;;;;;;;46.78;27.20;;;;;;;;;;5082788;28;20028;-80
2024/01/11 10:32:48;;;;;;;51.85;27.73;;;;;;;;;;5074535;28;20416;-81
2024/01/11 10:35:35;;;;;;;49.38;27.83;;;;;;;;;;5096955;28;20024;-81
2024/01/11 10:38:25;;;;;;;50.65;26.83;;;;;;;;;;5086591;28;20059;-80
2024/01/11 10:41:11;;;;;;;50.80;26.17;;;;;;;;;;5086862;28;20331;-79
2024/01/11 10:43:57;;;;;;;55.53;25.83;;;;;;;;;;5081620;28;21213;-80
2024/01/11 10:46:44;;;;;;;54.88;27.73;;;;;;;;;;5083668;28;20381;-80
2024/01/11 10:49:30;;;;;;;53.53;28.50;;;;;;;;;;5086771;28;20446;-79
2024/01/11 10:52:18;;;;;;;54.75;30.27;;;;;;;;;;5100623;28;20111;-79
2024/01/11 10:55:04;;;;;;;44.65;24.73;;;;;;;;;;5085256;28;20024;-82
2024/01/11 10:57:50;;;;;;;53.10;26.90;;;;;;;;;;5081594;28;21503;-82
2024/01/11 11:00:35;;;;;;;48.55;26.17;;;;;;;;;;5085172;28;20449;-78
2024/01/11 11:03:22;;;;;;;47.63;26.55;;;;;;;;;;5087998;28;20039;-81
2024/01/11 11:06:08;;;;;;;50.92;27.73;;;;;;;;;;5084086;28;20066;-78
2024/01/11 11:08:54;;;;;;;51.20;25.10;;;;;;;;;;5079664;28;20062;-79
2024/01/11 11:11:39;;;;;;;56.40;27.65;;;;;;;;;;5087767;28;20342;-78
2024/01/11 11:14:24;;;;;;;52.25;26.73;;;;;;;;;;5085634;28;20464;-81
2024/01/11 11:17:10;;;;;;;56.08;28.90;;;;;;;;;;5091720;28;20066;-79
2024/01/11 11:19:55;;;;;;;56.38;29.80;;;;;;;;;;5098787;28;20031;-81
2024/01/11 11:22:40;;;;;;;46.38;26.50;;;;;;;;;;5110550;28;20024;-80
2024/01/11 11:25:26;;;;;;;47.83;26.60;;;;;;;;;;5118495;28;20028;-80
2024/01/11 11:28:11;;;;;;;49.22;27.98;;;;;;;;;;5128289;28;20076;-82
2024/01/11 11:30:59;;;;;;;49.97;26.70;;;;;;;;;;5128005;28;20039;-82
2024/01/11 11:33:45;;;;;;;;;;;;;;;;;;5129805;28;20022;-82
2024/01/11 11:36:30;;;;;;;51.13;27.20;;;;;;;;;;5117983;28;20370;-81
2024/01/11 11:39:16;;;;;;;52.08;28.73;;;;;;;;;;5095628;28;20055;-81
2024/01/11 11:42:04;;;;;;;49.40;28.02;;;;;;;;;;5079796;28;20051;-80
2024/01/11 11:44:50;;;;;;;48.25;27.20;;;;;;;;;;5086374;28;20088;-80
2024/01/11 11:47:37;;;;;;;52.80;28.33;;;;;;;;;;5083103;28;20030;-80
2024/01/11 11:50:23;;;;;;;60.33;28.88;;;;;;;;;;5084334;28;20047;-79
2024/01/11 11:53:11;;;;;;;48.25;28.08;;;;;;;;;;5074677;28;20070;-80
2024/01/11 11:55:56;;;;;;;50.28;29.08;;;;;;;;;;5034472;28;20031;-79
2024/01/11 11:58:42;;;;;;;52.03;29.52;;;;;;;;;;5067961;28;20333;-80
2024/01/11 12:01:28;;;;;;;48.53;26.83;;;;;;;;;;5084053;28;20035;-78
2024/01/11 12:04:14;;;;;;;50.60;27.38;;;;;;;;;;5086640;28;20086;-78
2024/01/11 12:06:59;;;;;;;47.88;29.65;;;;;;;;;;5077805;28;20035;-80
2024/01/11 12:09:46;;;;;;;50.30;28.25;;;;;;;;;;5083806;28;20061;-79
2024/01/11 12:12:31;;;;;;;51.20;27.85;;;;;;;;;;5087255;28;20036;-80
2024/01/11 12:15:18;;;;;;;46.05;27.40;;;;;;;;;;5086359;28;20028;-77
2024/01/11 12:18:03;;;;;;;47.78;27.60;;;;;;;;;;5088620;28;20260;-77
2024/01/11 12:20:49;;;;;;;47.90;26.60;;;;;;;;;;5089673;28;20107;-78
2024/01/11 12:23:35;;;;;;;48.20;27.92;;;;;;;;;;5086063;28;20487;-79
2024/01/11 12:26:21;;;;;;;50.88;27.90;;;;;;;;;;5083326;28;20577;-78
2024/01/11 12:29:08;;;;;;;50.92;27.25;;;;;;;;;;5087632;28;20032;-78
2024/01/11 12:31:55;;;;;;;50.88;29.63;;;;;;;;;;5087842;28;20035;-79
2024/01/11 12:34:41;;;;;;;46.83;25.02;;;;;;;;;;5085444;28;20062;-79
2024/01/11 12:37:26;;;;;;;49.90;27.17;;;;;;;;;;5082214;28;20036;-79
2024/01/11 12:40:12;;;;;;;50.70;27.02;;;;;;;;;;5100914;28;20153;-79
2024/01/11 12:42:59;;;;;;;52.00;26.63;;;;;;;;;;5087209;28;20031;-79
2024/01/11 12:45:44;;;;;;;52.30;27.02;;;;;;;;;;5084834;28;20067;-79
2024/01/11 12:48:30;;;;;;;46.38;26.40;;;;;;;;;;5079697;28;20031;-78
2024/01/11 12:51:18;;;;;;;46.03;26.25;;;;;;;;;;5081865;28;20020;-79
2024/01/11 12:54:04;;;;;;;52.97;28.83;;;;;;;;;;5062814;28;20024;-79
2024/01/11 12:56:50;;;;;;;55.83;28.60;;;;;;;;;;5079487;28;20028;-79
2024/01/11 12:59:35;;;;;;;50.15;26.10;;;;;;;;;;5081258;28;20048;-78
2024/01/11 13:02:20;;;;;;;47.45;25.48;;;;;;;;;;5088151;28;20024;-80
2024/01/11 13:05:07;;;;;;;49.10;27.50;;;;;;;;;;5065886;28;20031;-81
2024/01/11 13:07:52;;;;;;;48.00;26.13;;;;;;;;;;5080649;28;20164;-81
2024/01/11 13:10:37;;;;;;;45.10;26.75;;;;;;;;;;5089899;28;20031;-80
2024/01/11 13:13:22;;;;;;;45.97;26.33;;;;;;;;;;5083949;28;20179;-80
2024/01/11 13:16:11;;;;;;;46.90;25.85;;;;;;;;;;5081164;28;20110;-80
2024/01/11 13:18:56;;;;;;;52.55;27.27;;;;;;;;;;5088783;28;20047;-80
2024/01/11 13:21:41;;;;;;;47.58;28.00;;;;;;;;;;5083202;28;20027;-82
2024/01/11 13:24:27;;;;;;;47.60;25.08;;;;;;;;;;5081608;28;20024;-81
2024/01/11 13:27:12;;;;;;;46.42;26.10;;;;;;;;;;5083735;28;20224;-80
2024/01/11 13:29:58;;;;;;;40.20;24.83;;;;;;;;;;5078265;28;20101;-82
2024/01/11 13:32:43;;;;;;;49.97;27.38;;;;;;;;;;5089904;28;20389;-80
2024/01/11 13:35:28;;;;;;;43.58;26.00;;;;;;;;;;5085980;28;20030;-80
2024/01/11 13:38:13;;;;;;;42.90;24.05;;;;;;;;;;5088948;28;20038;-80
2024/01/11 13:40:59;;;;;;;47.75;26.40;;;;;;;;;;5102081;28;20055;-81
2024/01/11 13:43:44;;;;;;;51.20;28.00;;;;;;;;;;5073759;28;20078;-82
2024/01/11 13:46:29;;;;;;;50.95;27.75;;;;;;;;;;5082023;28;20560;-81
2024/01/11 13:49:14;;;;;;;49.33;25.45;;;;;;;;;;5081723;28;20471;-80
2024/01/11 13:52:00;;;;;;;42.95;23.85;;;;;;;;;;5084146;28;20029;-79
2024/01/11 13:54:45;;;;;;;51.97;26.27;;;;;;;;;;5083569;28;20324;-80
2024/01/11 13:57:30;;;;;;;45.10;25.25;;;;;;;;;;5084634;28;21475;-80
2024/01/11 14:00:18;;;;;;;41.47;24.52;;;;;;;;;;5087075;28;20118;-81
2024/01/11 14:03:04;;;;;;;48.08;25.23;;;;;;;;;;5080046;28;20024;-81
2024/01/11 14:05:50;;;;;;;52.35;27.10;;;;;;;;;;5095974;28;20023;-81
2024/01/11 14:08:37;;;;;;;48.90;26.02;;;;;;;;;;5085648;28;20035;-80
2024/01/11 14:11:23;;;;;;;49.42;26.15;;;;;;;;;;5065596;28;20285;-79
2024/01/11 14:14:11;;;;;;;45.30;27.85;;;;;;;;;;5040766;28;20122;-79
2024/01/11 14:16:56;;;;;;;44.13;25.45;;;;;;;;;;5038412;28;20557;-79
2024/01/11 14:19:41;;;;;;;48.28;26.42;;;;;;;;;;5036685;28;20059;-81
2024/01/11 14:22:27;;;;;;;45.88;25.52;;;;;;;;;;5047352;28;20448;-81
2024/01/11 14:25:18;;;;;;;50.05;27.05;;;;;;;;;;5050600;28;20023;-81
2024/01/11 14:28:04;;;;;;;50.15;27.00;;;;;;;;;;5035754;28;20924;-81
2024/01/11 14:30:52;;;;;;;45.92;24.20;;;;;;;;;;5050466;28;20107;-82
2024/01/11 14:33:37;;;;;;;51.42;27.10;;;;;;;;;;5037170;28;20055;-80
2024/01/11 14:36:22;;;;;;;44.15;24.85;;;;;;;;;;5041171;28;20840;-81
2024/01/11 14:39:09;;;;;;;45.05;27.23;;;;;;;;;;5051318;28;20425;-81
2024/01/11 14:41:55;;;;;;;45.00;27.05;;;;;;;;;;5042552;28;21043;-82
2024/01/11 14:44:40;;;;;;;55.28;28.15;;;;;;;;;;5040871;28;20056;-85
2024/01/11 14:47:25;;;;;;;47.10;28.13;;;;;;;;;;5040641;28;20794;-81
2024/01/11 14:50:11;;;;;;;51.85;28.67;;;;;;;;;;5041533;28;20127;-83
2024/01/11 14:52:56;;;;;;;57.42;28.13;;;;;;;;;;5037435;28;20031;-81
2024/01/11 14:55:42;;;;;;;49.85;27.48;;;;;;;;;;5040778;28;20835;-82
2024/01/11 14:58:27;;;;;;;48.80;26.73;;;;;;;;;;5051509;28;20521;-84
2024/01/11 15:01:13;;;;;;;53.92;27.73;;;;;;;;;;5041355;28;21228;-83
2024/01/11 15:03:58;;;;;;;52.90;27.83;;;;;;;;;;5070231;28;20054;-83
2024/01/11 15:06:44;;;;;;;48.90;26.77;;;;;;;;;;5036879;28;20075;-83
2024/01/11 15:09:29;;;;;;;52.63;28.33;;;;;;;;;;5037683;28;20153;-83
2024/01/11 15:12:14;;;;;;;46.58;26.75;;;;;;;;;;5052855;28;20180;-80
2024/01/11 15:15:00;;;;;;;52.22;27.73;;;;;;;;;;5035998;28;20093;-80
2024/01/11 15:17:46;;;;;;;51.40;27.98;;;;;;;;;;5037587;28;20081;-80
2024/01/11 15:20:31;;;;;;;47.83;27.67;;;;;;;;;;5036231;28;20031;-81
2024/01/11 15:23:16;;;;;;;59.13;27.75;;;;;;;;;;5041367;28;20028;-84
2024/01/11 15:26:02;;;;;;;50.38;25.88;;;;;;;;;;5034625;28;20555;-81
2024/01/11 15:28:47;;;;;;;45.15;25.05;;;;;;;;;;5039042;28;20031;-82
2024/01/11 15:31:35;;;;;;;51.92;28.35;;;;;;;;;;5035124;28;20027;-82
2024/01/11 15:34:21;;;;;;;54.42;27.10;;;;;;;;;;5044935;28;20040;-81
2024/01/11 15:37:07;;;;;;;53.70;28.50;;;;;;;;;;5038874;28;20057;-82
2024/01/11 15:39:54;;;;;;;45.92;26.13;;;;;;;;;;5037459;28;20893;-81
2024/01/11 15:42:39;;;;;;;49.55;27.65;;;;;;;;;;5035395;28;20032;-82
2024/01/11 15:45:24;;;;;;;60.13;28.27;;;;;;;;;;5047887;28;20242;-82
2024/01/11 15:48:09;;;;;;;44.53;27.73;;;;;;;;;;5036915;28;20032;-82
2024/01/11 15:50:57;;;;;;;50.90;27.20;;;;;;;;;;5039167;28;20104;-83
2024/01/11 15:53:43;;;;;;;48.33;26.25;;;;;;;;;;5049515;28;20508;-81
2024/01/11 15:56:28;;;;;;;49.13;25.05;;;;;;;;;;5043972;28;20327;-84
2024/01/11 15:59:13;;;;;;;51.35;27.20;;;;;;;;;;5043038;28;20106;-81
2024/01/11 16:01:59;;;;;;;46.03;25.85;;;;;;;;;;5060691;28;20098;-83
2024/01/11 16:04:45;;;;;;;48.75;25.80;;;;;;;;;;5086923;28;20167;-83